sensor_id;sensor_type;location;lat;lon;timestamp;pressure;altitude;pressure_sealevel;temperature;humidity
11523;BME280;70090;43.208;27.904;2023-05-19T00:00:55;100631.44;;;17.76;100.00
11523;BME280;70090;43.208;27.904;2023-05-19T00:03:22;100621.13;;;17.73;100.00
11523;BME280;70090;43.208;27.904;2023-05-19T00:05:52;100634.22;;;17.76;100.00
11523;BME280;70090;43.208;27.904;2023-05-19T00:08:19;100624.25;;;17.78;100.00
11523;BME280;70090;43.208;27.904;2023-05-19T00:10:48;100631.28;;;17.83;100.00
11523;BME280;70090;43.208;27.904;2023-05-19T00:13:17;100630.56;;;17.79;100.00
11523;BME280;70090;43.208;27.904;2023-05-19T00:15:45;100630.97;;;17.77;100.00
11523;BME280;70090;43.208;27.904;2023-05-19T00:18:12;100633.09;;;17.70;100.00
11523;BME280;70090;43.208;27.904;2023-05-19T00:20:41;100636.63;;;17.74;100.00
11523;BME280;70090;43.208;27.904;2023-05-19T00:23:07;100643.41;;;17.73;100.00
11523;BME280;70090;43.208;27.904;2023-05-19T00:25:34;100649.75;;;17.73;100.00
11523;BME280;70090;43.208;27.904;2023-05-19T00:28:01;100637.00;;;17.76;100.00
11523;BME280;70090;43.208;27.904;2023-05-19T00:30:30;100638.63;;;17.73;100.00
11523;BME280;70090;43.208;27.904;2023-05-19T00:32:57;100639.47;;;17.70;100.00
11523;BME280;70090;43.208;27.904;2023-05-19T00:35:23;100646.56;;;17.75;100.00
11523;BME280;70090;43.208;27.904;2023-05-19T00:37:50;100648.13;;;17.76;100.00
11523;BME280;70090;43.208;27.904;2023-05-19T00:40:17;100654.53;;;17.73;100.00
11523;BME280;70090;43.208;27.904;2023-05-19T00:42:44;100656.22;;;17.67;100.00
11523;BME280;70090;43.208;27.904;2023-05-19T00:45:11;100654.72;;;17.59;100.00
11523;BME280;70090;43.208;27.904;2023-05-19T00:47:39;100652.31;;;17.61;100.00
11523;BME280;70090;43.208;27.904;2023-05-19T00:50:06;100650.84;;;17.53;100.00
11523;BME280;70090;43.208;27.904;2023-05-19T00:52:33;100659.56;;;17.55;100.00
11523;BME280;70090;43.208;27.904;2023-05-19T00:55:00;100653.31;;;17.48;100.00
11523;BME280;70090;43.208;27.904;2023-05-19T00:57:27;100656.41;;;17.53;100.00
11523;BME280;70090;43.208;27.904;2023-05-19T00:59:54;100659.56;;;17.55;100.00
11523;BME280;70090;43.208;27.904;2023-05-19T01:02:21;100660.00;;;17.50;100.00
11523;BME280;70090;43.208;27.904;2023-05-19T01:04:50;100669.22;;;17.47;100.00
11523;BME280;70090;43.208;27.904;2023-05-19T01:07:17;100670.06;;;17.44;100.00
11523;BME280;70090;43.208;27.904;2023-05-19T01:09:46;100666.91;;;17.42;100.00
11523;BME280;70090;43.208;27.904;2023-05-19T01:12:13;100674.13;;;17.36;100.00
11523;BME280;70090;43.208;27.904;2023-05-19T01:14:40;100667.72;;;17.39;100.00
11523;BME280;70090;43.208;27.904;2023-05-19T01:17:13;100668.81;;;17.49;100.00
11523;BME280;70090;43.208;27.904;2023-05-19T01:19:52;100668.81;;;17.49;100.00
11523;BME280;70090;43.208;27.904;2023-05-19T01:22:39;100671.72;;;17.38;100.00
11523;BME280;70090;43.208;27.904;2023-05-19T01:25:33;100671.91;;;17.21;100.00
11523;BME280;70090;43.208;27.904;2023-05-19T01:28:38;100675.94;;;17.16;100.00
11523;BME280;70090;43.208;27.904;2023-05-19T01:31:11;100677.34;;;16.98;100.00
11523;BME280;70090;43.208;27.904;2023-05-19T01:33:40;100689.63;;;17.04;100.00
11523;BME280;70090;43.208;27.904;2023-05-19T01:36:10;100688.09;;;16.96;100.00
11523;BME280;70090;43.208;27.904;2023-05-19T01:38:38;100688.00;;;16.69;100.00
11523;BME280;70090;43.208;27.904;2023-05-19T01:41:05;100691.41;;;16.84;100.00
11523;BME280;70090;43.208;27.904;2023-05-19T01:43:33;100693.81;;;16.82;100.00
11523;BME280;70090;43.208;27.904;2023-05-19T01:46:02;100684.69;;;16.81;100.00
11523;BME280;70090;43.208;27.904;2023-05-19T01:48:30;100684.91;;;16.97;100.00
11523;BME280;70090;43.208;27.904;2023-05-19T01:50:58;100691.63;;;17.00;100.00
11523;BME280;70090;43.208;27.904;2023-05-19T01:53:25;100679.34;;;16.97;100.00
11523;BME280;70090;43.208;27.904;2023-05-19T01:55:54;100684.91;;;16.97;100.00
11523;BME280;70090;43.208;27.904;2023-05-19T01:58:28;100683.31;;;16.96;100.00
11523;BME280;70090;43.208;27.904;2023-05-19T02:01:02;100686.22;;;16.86;100.00
11523;BME280;70090;43.208;27.904;2023-05-19T02:03:43;100687.06;;;16.83;100.00
11523;BME280;70090;43.208;27.904;2023-05-19T02:06:22;100693.78;;;16.85;100.00
11523;BME280;70090;43.208;27.904;2023-05-19T02:08:57;100694.59;;;16.82;100.00
11523;BME280;70090;43.208;27.904;2023-05-19T02:11:35;100694.19;;;16.84;100.00
11523;BME280;70090;43.208;27.904;2023-05-19T02:14:06;100698.63;;;16.78;100.00
11523;BME280;70090;43.208;27.904;2023-05-19T02:16:35;100705.75;;;16.79;100.00
11523;BME280;70090;43.208;27.904;2023-05-19T02:19:04;100700.19;;;16.79;100.00
11523;BME280;70090;43.208;27.904;2023-05-19T02:21:30;100708.13;;;16.80;100.00
11523;BME280;70090;43.208;27.904;2023-05-19T02:23:57;100698.22;;;16.79;100.00
11523;BME280;70090;43.208;27.904;2023-05-19T02:26:24;100710.53;;;16.78;100.00
11523;BME280;70090;43.208;27.904;2023-05-19T02:28:51;100705.41;;;16.73;100.00
11523;BME280;70090;43.208;27.904;2023-05-19T02:31:18;100711.44;;;16.68;100.00
11523;BME280;70090;43.208;27.904;2023-05-19T02:33:45;100717.00;;;16.65;100.00
11523;BME280;70090;43.208;27.904;2023-05-19T02:36:13;100718.19;;;16.67;100.00
11523;BME280;70090;43.208;27.904;2023-05-19T02:38:40;100716.53;;;16.73;100.00
11523;BME280;70090;43.208;27.904;2023-05-19T02:41:06;100715.66;;;16.80;100.00
11523;BME280;70090;43.208;27.904;2023-05-19T02:43:33;100716.13;;;16.75;100.00
11523;BME280;70090;43.208;27.904;2023-05-19T02:46:00;100710.59;;;16.71;100.00
11523;BME280;70090;43.208;27.904;2023-05-19T02:48:27;100712.91;;;16.76;100.00
11523;BME280;70090;43.208;27.904;2023-05-19T02:50:54;100726.34;;;16.85;100.00
11523;BME280;70090;43.208;27.904;2023-05-19T02:53:22;100718.78;;;16.85;100.00
11523;BME280;70090;43.208;27.904;2023-05-19T02:55:49;100716.81;;;16.86;100.00
11523;BME280;70090;43.208;27.904;2023-05-19T02:58:15;100719.94;;;16.91;100.00
11523;BME280;70090;43.208;27.904;2023-05-19T03:00:43;100726.59;;;16.97;100.00
11523;BME280;70090;43.208;27.904;2023-05-19T03:03:10;100717.34;;;17.07;100.00
11523;BME280;70090;43.208;27.904;2023-05-19T03:05:38;100727.59;;;17.14;100.00
11523;BME280;70090;43.208;27.904;2023-05-19T03:08:05;100720.47;;;17.13;100.00
11523;BME280;70090;43.208;27.904;2023-05-19T03:10:33;100722.97;;;17.04;100.00
11523;BME280;70090;43.208;27.904;2023-05-19T03:13:00;100724.59;;;17.01;100.00
11523;BME280;70090;43.208;27.904;2023-05-19T03:15:27;100718.22;;;17.01;100.00
11523;BME280;70090;43.208;27.904;2023-05-19T03:17:55;100717.38;;;16.67;100.00
11523;BME280;70090;43.208;27.904;2023-05-19T03:20:21;100695.91;;;16.71;100.00
11523;BME280;70090;43.208;27.904;2023-05-19T03:22:48;100725.19;;;16.82;100.00
11523;BME280;70090;43.208;27.904;2023-05-19T03:25:15;100727.94;;;16.82;100.00
11523;BME280;70090;43.208;27.904;2023-05-19T03:27:44;100737.53;;;16.78;100.00
11523;BME280;70090;43.208;27.904;2023-05-19T03:30:12;100743.81;;;16.85;100.00
11523;BME280;70090;43.208;27.904;2023-05-19T03:32:38;100747.72;;;16.91;100.00
11523;BME280;70090;43.208;27.904;2023-05-19T03:35:06;100760.34;;;16.99;100.00
11523;BME280;70090;43.208;27.904;2023-05-19T03:37:33;100755.06;;;17.08;100.00
11523;BME280;70090;43.208;27.904;2023-05-19T03:40:00;100760.94;;;17.17;100.00
11523;BME280;70090;43.208;27.904;2023-05-19T03:42:26;100760.63;;;17.08;100.00
11523;BME280;70090;43.208;27.904;2023-05-19T03:44:55;100768.88;;;17.19;100.00
11523;BME280;70090;43.208;27.904;2023-05-19T03:47:21;100769.44;;;17.40;100.00
11523;BME280;70090;43.208;27.904;2023-05-19T03:49:48;100768.47;;;17.57;100.00
11523;BME280;70090;43.208;27.904;2023-05-19T03:52:15;100772.63;;;17.72;100.00
11523;BME280;70090;43.208;27.904;2023-05-19T03:54:42;100778.13;;;17.79;100.00
11523;BME280;70090;43.208;27.904;2023-05-19T03:57:09;100769.81;;;17.75;100.00
11523;BME280;70090;43.208;27.904;2023-05-19T03:59:36;100772.91;;;17.81;100.00
11523;BME280;70090;43.208;27.904;2023-05-19T04:02:07;100773.34;;;17.79;100.00
11523;BME280;70090;43.208;27.904;2023-05-19T04:04:34;100768.56;;;17.80;100.00
11523;BME280;70090;43.208;27.904;2023-05-19T04:07:01;100769.31;;;17.84;100.00
11523;BME280;70090;43.208;27.904;2023-05-19T04:09:28;100767.63;;;17.90;100.00
11523;BME280;70090;43.208;27.904;2023-05-19T04:11:56;100765.53;;;17.97;100.00
11523;BME280;70090;43.208;27.904;2023-05-19T04:14:23;100776.72;;;17.94;100.00
11523;BME280;70090;43.208;27.904;2023-05-19T04:16:50;100774.69;;;17.98;100.00
11523;BME280;70090;43.208;27.904;2023-05-19T04:19:19;100776.16;;;18.06;100.00
11523;BME280;70090;43.208;27.904;2023-05-19T04:21:46;100787.66;;;18.08;100.00
11523;BME280;70090;43.208;27.904;2023-05-19T04:24:13;100776.63;;;18.27;100.00
11523;BME280;70090;43.208;27.904;2023-05-19T04:26:40;100786.25;;;18.23;100.00
11523;BME280;70090;43.208;27.904;2023-05-19T04:29:10;100789.94;;;18.43;100.00
11523;BME280;70090;43.208;27.904;2023-05-19T04:31:38;100786.94;;;18.57;100.00
11523;BME280;70090;43.208;27.904;2023-05-19T04:34:05;100787.78;;;18.54;100.00
11523;BME280;70090;43.208;27.904;2023-05-19T04:36:35;100786.09;;;18.60;100.00
11523;BME280;70090;43.208;27.904;2023-05-19T04:39:02;100795.56;;;18.66;100.00
11523;BME280;70090;43.208;27.904;2023-05-19T04:41:32;100797.00;;;18.74;100.00
11523;BME280;70090;43.208;27.904;2023-05-19T04:43:59;100789.88;;;18.73;100.00
11523;BME280;70090;43.208;27.904;2023-05-19T04:46:26;100797.94;;;18.67;100.00
11523;BME280;70090;43.208;27.904;2023-05-19T04:48:54;100800.59;;;18.74;100.00
11523;BME280;70090;43.208;27.904;2023-05-19T04:51:21;100791.19;;;18.88;98.34
11523;BME280;70090;43.208;27.904;2023-05-19T04:53:53;100798.22;;;18.96;97.90
11523;BME280;70090;43.208;27.904;2023-05-19T04:56:20;100793.97;;;19.11;97.38
11523;BME280;70090;43.208;27.904;2023-05-19T04:58:47;100798.59;;;19.21;95.36
11523;BME280;70090;43.208;27.904;2023-05-19T05:01:14;100801.97;;;19.32;95.43
11523;BME280;70090;43.208;27.904;2023-05-19T05:03:41;100797.34;;;19.45;92.45
11523;BME280;70090;43.208;27.904;2023-05-19T05:06:08;100807.53;;;19.55;92.26
11523;BME280;70090;43.208;27.904;2023-05-19T05:08:35;100803.00;;;19.61;91.56
11523;BME280;70090;43.208;27.904;2023-05-19T05:11:07;100806.06;;;19.66;91.03
11523;BME280;70090;43.208;27.904;2023-05-19T05:13:35;100804.06;;;19.67;90.59
11523;BME280;70090;43.208;27.904;2023-05-19T05:16:02;100811.53;;;19.73;89.98
11523;BME280;70090;43.208;27.904;2023-05-19T05:18:31;100814.06;;;19.84;89.60
11523;BME280;70090;43.208;27.904;2023-05-19T05:20:58;100796.22;;;19.97;89.99
11523;BME280;70090;43.208;27.904;2023-05-19T05:23:26;100807.56;;;20.10;86.63
11523;BME280;70090;43.208;27.904;2023-05-19T05:25:53;100794.84;;;20.25;83.86
11523;BME280;70090;43.208;27.904;2023-05-19T05:28:22;100806.91;;;20.37;82.80
11523;BME280;70090;43.208;27.904;2023-05-19T05:30:49;100800.56;;;20.53;81.95
11523;BME280;70090;43.208;27.904;2023-05-19T05:33:16;100809.03;;;20.65;80.97
11523;BME280;70090;43.208;27.904;2023-05-19T05:35:43;100794.63;;;20.67;79.50
11523;BME280;70090;43.208;27.904;2023-05-19T05:38:11;100802.56;;;20.68;80.25
11523;BME280;70090;43.208;27.904;2023-05-19T05:40:37;100791.22;;;20.75;79.68
11523;BME280;70090;43.208;27.904;2023-05-19T05:43:04;100802.16;;;20.86;78.99
11523;BME280;70090;43.208;27.904;2023-05-19T05:45:32;100792.63;;;20.83;78.06
11523;BME280;70090;43.208;27.904;2023-05-19T05:47:59;100805.22;;;20.91;78.46
11523;BME280;70090;43.208;27.904;2023-05-19T05:50:27;100800.28;;;21.11;78.41
11523;BME280;70090;43.208;27.904;2023-05-19T05:52:54;100796.34;;;21.25;77.47
11523;BME280;70090;43.208;27.904;2023-05-19T05:55:23;100793.69;;;21.34;76.40
11523;BME280;70090;43.208;27.904;2023-05-19T05:57:51;100797.41;;;21.43;76.29
11523;BME280;70090;43.208;27.904;2023-05-19T06:00:18;100796.00;;;21.51;74.24
11523;BME280;70090;43.208;27.904;2023-05-19T06:02:48;100793.69;;;21.62;72.71
11523;BME280;70090;43.208;27.904;2023-05-19T06:05:16;100790.06;;;21.78;64.02
11523;BME280;70090;43.208;27.904;2023-05-19T06:07:43;100789.53;;;21.83;61.35
11523;BME280;70090;43.208;27.904;2023-05-19T06:10:10;100788.53;;;21.89;60.98
11523;BME280;70090;43.208;27.904;2023-05-19T06:12:37;100801.44;;;21.99;60.02
11523;BME280;70090;43.208;27.904;2023-05-19T06:15:05;100794.72;;;22.09;59.32
11523;BME280;70090;43.208;27.904;2023-05-19T06:17:33;100793.59;;;22.07;59.53
11523;BME280;70090;43.208;27.904;2023-05-19T06:20:02;100794.38;;;22.20;60.01
11523;BME280;70090;43.208;27.904;2023-05-19T06:22:30;100796.75;;;22.21;58.84
11523;BME280;70090;43.208;27.904;2023-05-19T06:24:57;100801.91;;;22.35;58.78
11523;BME280;70090;43.208;27.904;2023-05-19T06:27:24;100781.41;;;22.51;57.80
11523;BME280;70090;43.208;27.904;2023-05-19T06:29:51;100790.03;;;22.56;58.79
11523;BME280;70090;43.208;27.904;2023-05-19T06:32:18;100799.00;;;22.51;58.31
11523;BME280;70090;43.208;27.904;2023-05-19T06:34:45;100790.94;;;22.53;58.00
11523;BME280;70090;43.208;27.904;2023-05-19T06:37:19;100805.84;;;22.63;57.53
11523;BME280;70090;43.208;27.904;2023-05-19T06:39:47;100809.41;;;22.76;57.09
11523;BME280;70090;43.208;27.904;2023-05-19T06:42:16;100783.34;;;22.88;56.50
11523;BME280;70090;43.208;27.904;2023-05-19T06:44:46;100814.69;;;22.86;56.45
11523;BME280;70090;43.208;27.904;2023-05-19T06:47:13;100810.16;;;23.01;56.59
11523;BME280;70090;43.208;27.904;2023-05-19T06:49:40;100805.09;;;23.21;56.70
11523;BME280;70090;43.208;27.904;2023-05-19T06:52:07;100815.16;;;23.31;55.55
11523;BME280;70090;43.208;27.904;2023-05-19T06:54:36;100820.88;;;23.40;55.71
11523;BME280;70090;43.208;27.904;2023-05-19T06:57:03;100810.06;;;23.38;55.57
11523;BME280;70090;43.208;27.904;2023-05-19T06:59:30;100823.06;;;23.45;56.21
11523;BME280;70090;43.208;27.904;2023-05-19T07:01:56;100818.06;;;23.61;54.44
11523;BME280;70090;43.208;27.904;2023-05-19T07:04:23;100827.69;;;23.73;53.80
11523;BME280;70090;43.208;27.904;2023-05-19T07:06:50;100829.00;;;23.81;53.40
11523;BME280;70090;43.208;27.904;2023-05-19T07:09:17;100831.81;;;23.81;53.15
11523;BME280;70090;43.208;27.904;2023-05-19T07:11:46;100841.91;;;23.91;53.65
11523;BME280;70090;43.208;27.904;2023-05-19T07:14:12;100847.31;;;24.07;52.95
11523;BME280;70090;43.208;27.904;2023-05-19T07:16:39;100843.91;;;24.12;52.37
11523;BME280;70090;43.208;27.904;2023-05-19T07:19:06;100834.06;;;24.16;51.88
11523;BME280;70090;43.208;27.904;2023-05-19T07:21:33;100840.22;;;24.24;51.36
11523;BME280;70090;43.208;27.904;2023-05-19T07:24:00;100840.47;;;24.38;51.88
11523;BME280;70090;43.208;27.904;2023-05-19T07:26:27;100850.03;;;24.50;50.46
11523;BME280;70090;43.208;27.904;2023-05-19T07:28:55;100834.72;;;24.51;50.52
11523;BME280;70090;43.208;27.904;2023-05-19T07:31:22;100850.47;;;24.48;50.21
11523;BME280;70090;43.208;27.904;2023-05-19T07:33:49;100850.09;;;24.59;49.88
11523;BME280;70090;43.208;27.904;2023-05-19T07:36:16;100835.13;;;24.71;50.42
11523;BME280;70090;43.208;27.904;2023-05-19T07:38:42;100844.09;;;24.87;49.19
11523;BME280;70090;43.208;27.904;2023-05-19T07:41:10;100840.53;;;24.96;48.35
11523;BME280;70090;43.208;27.904;2023-05-19T07:43:37;100848.97;;;24.87;47.85
11523;BME280;70090;43.208;27.904;2023-05-19T07:46:05;100845.25;;;24.99;47.65
11523;BME280;70090;43.208;27.904;2023-05-19T07:48:32;100851.50;;;25.03;47.64
11523;BME280;70090;43.208;27.904;2023-05-19T07:50:59;100851.22;;;25.10;47.79
11523;BME280;70090;43.208;27.904;2023-05-19T07:53:26;100849.09;;;25.32;47.74
11523;BME280;70090;43.208;27.904;2023-05-19T07:55:53;100842.81;;;25.55;46.02
11523;BME280;70090;43.208;27.904;2023-05-19T07:58:20;100845.66;;;25.55;45.56
11523;BME280;70090;43.208;27.904;2023-05-19T08:00:47;100858.78;;;25.67;45.66
11523;BME280;70090;43.208;27.904;2023-05-19T08:03:15;100853.78;;;25.79;45.52
11523;BME280;70090;43.208;27.904;2023-05-19T08:05:43;100852.84;;;26.00;46.40
11523;BME280;70090;43.208;27.904;2023-05-19T08:08:09;100857.50;;;26.21;43.14
11523;BME280;70090;43.208;27.904;2023-05-19T08:10:37;100857.47;;;26.39;43.26
11523;BME280;70090;43.208;27.904;2023-05-19T08:13:04;100874.69;;;26.50;43.41
11523;BME280;70090;43.208;27.904;2023-05-19T08:15:30;100869.91;;;26.65;43.91
11523;BME280;70090;43.208;27.904;2023-05-19T08:17:57;100872.59;;;26.69;45.07
11523;BME280;70090;43.208;27.904;2023-05-19T08:20:25;100882.50;;;26.55;45.39
11523;BME280;70090;43.208;27.904;2023-05-19T08:22:52;100871.34;;;26.61;50.89
11523;BME280;70090;43.208;27.904;2023-05-19T08:25:19;100880.00;;;26.57;49.17
11523;BME280;70090;43.208;27.904;2023-05-19T08:27:46;100870.56;;;26.69;47.87
11523;BME280;70090;43.208;27.904;2023-05-19T08:30:13;100878.44;;;26.89;47.20
11523;BME280;70090;43.208;27.904;2023-05-19T08:32:40;100874.19;;;26.93;45.92
11523;BME280;70090;43.208;27.904;2023-05-19T08:35:08;100877.06;;;26.84;44.63
11523;BME280;70090;43.208;27.904;2023-05-19T08:37:36;100888.50;;;26.90;44.65
11523;BME280;70090;43.208;27.904;2023-05-19T08:40:04;100879.97;;;26.99;45.17
11523;BME280;70090;43.208;27.904;2023-05-19T08:42:31;100878.19;;;27.10;43.50
11523;BME280;70090;43.208;27.904;2023-05-19T08:44:58;100884.16;;;27.12;43.31
11523;BME280;70090;43.208;27.904;2023-05-19T08:47:26;100877.56;;;27.06;42.40
11523;BME280;70090;43.208;27.904;2023-05-19T08:50:02;100875.25;;;27.05;43.45
11523;BME280;70090;43.208;27.904;2023-05-19T08:52:36;100873.47;;;27.16;43.14
11523;BME280;70090;43.208;27.904;2023-05-19T08:55:13;100863.38;;;27.24;42.97
11523;BME280;70090;43.208;27.904;2023-05-19T08:57:41;100868.91;;;27.19;42.44
11523;BME280;70090;43.208;27.904;2023-05-19T09:00:09;100879.34;;;27.27;42.92
11523;BME280;70090;43.208;27.904;2023-05-19T09:02:37;100877.38;;;27.42;41.66
11523;BME280;70090;43.208;27.904;2023-05-19T09:05:05;100863.84;;;27.46;41.66
11523;BME280;70090;43.208;27.904;2023-05-19T09:07:33;100870.00;;;27.59;41.38
11523;BME280;70090;43.208;27.904;2023-05-19T09:10:02;100872.78;;;27.68;40.55
11523;BME280;70090;43.208;27.904;2023-05-19T09:12:32;100867.00;;;27.86;39.89
11523;BME280;70090;43.208;27.904;2023-05-19T09:14:59;100877.53;;;28.00;39.95
11523;BME280;70090;43.208;27.904;2023-05-19T09:17:26;100876.56;;;28.03;42.39
11523;BME280;70090;43.208;27.904;2023-05-19T09:19:53;100880.94;;;27.75;46.06
11523;BME280;70090;43.208;27.904;2023-05-19T09:22:20;100882.38;;;27.47;46.44
11523;BME280;70090;43.208;27.904;2023-05-19T09:24:48;100883.63;;;27.23;48.24
11523;BME280;70090;43.208;27.904;2023-05-19T09:27:20;100882.38;;;26.91;49.70
11523;BME280;70090;43.208;27.904;2023-05-19T09:29:49;100879.53;;;26.50;50.42
11523;BME280;70090;43.208;27.904;2023-05-19T09:32:23;100890.72;;;26.26;51.16
11523;BME280;70090;43.208;27.904;2023-05-19T09:34:52;100890.44;;;26.24;51.51
11523;BME280;70090;43.208;27.904;2023-05-19T09:37:21;100888.81;;;26.32;52.10
11523;BME280;70090;43.208;27.904;2023-05-19T09:39:48;100890.56;;;26.30;52.45
11523;BME280;70090;43.208;27.904;2023-05-19T09:42:23;100897.59;;;26.34;53.30
11523;BME280;70090;43.208;27.904;2023-05-19T09:44:58;100896.69;;;26.19;55.75
11523;BME280;70090;43.208;27.904;2023-05-19T09:47:24;100899.66;;;26.16;55.80
11523;BME280;70090;43.208;27.904;2023-05-19T09:49:52;100895.44;;;26.11;56.09
11523;BME280;70090;43.208;27.904;2023-05-19T09:52:19;100896.69;;;26.19;57.10
11523;BME280;70090;43.208;27.904;2023-05-19T09:54:47;100906.28;;;26.04;56.41
11523;BME280;70090;43.208;27.904;2023-05-19T09:57:16;100901.75;;;25.97;56.89
11523;BME280;70090;43.208;27.904;2023-05-19T09:59:43;100910.00;;;25.65;57.64
11523;BME280;70090;43.208;27.904;2023-05-19T10:02:15;100901.38;;;25.42;59.76
11523;BME280;70090;43.208;27.904;2023-05-19T10:04:45;100904.63;;;25.22;61.71
11523;BME280;70090;43.208;27.904;2023-05-19T10:07:14;100914.03;;;24.89;63.54
11523;BME280;70090;43.208;27.904;2023-05-19T10:09:42;100911.53;;;24.91;63.73
11523;BME280;70090;43.208;27.904;2023-05-19T10:12:11;100915.91;;;24.92;62.48
11523;BME280;70090;43.208;27.904;2023-05-19T10:14:39;100911.59;;;25.18;61.93
11523;BME280;70090;43.208;27.904;2023-05-19T10:17:06;100910.47;;;25.46;60.08
11523;BME280;70090;43.208;27.904;2023-05-19T10:19:37;100910.16;;;25.44;59.14
11523;BME280;70090;43.208;27.904;2023-05-19T10:22:05;100900.91;;;25.61;59.27
11523;BME280;70090;43.208;27.904;2023-05-19T10:24:31;100895.78;;;25.87;55.68
11523;BME280;70090;43.208;27.904;2023-05-19T10:27:02;100897.81;;;26.13;55.27
11523;BME280;70090;43.208;27.904;2023-05-19T10:29:33;100905.09;;;26.55;54.29
11523;BME280;70090;43.208;27.904;2023-05-19T10:32:05;100882.88;;;26.81;51.93
11523;BME280;70090;43.208;27.904;2023-05-19T10:37:47;100879.88;;;26.52;51.44
11523;BME280;70090;43.208;27.904;2023-05-19T10:40:21;100884.00;;;26.74;51.30
11523;BME280;70090;43.208;27.904;2023-05-19T10:42:59;100885.03;;;26.95;49.71
11523;BME280;70090;43.208;27.904;2023-05-19T10:45:29;100883.88;;;27.01;48.48
11523;BME280;70090;43.208;27.904;2023-05-19T10:47:57;100886.03;;;27.15;47.19
11523;BME280;70090;43.208;27.904;2023-05-19T10:50:24;100890.91;;;27.15;47.70
11523;BME280;70090;43.208;27.904;2023-05-19T10:52:54;100863.19;;;27.28;47.87
11523;BME280;70090;43.208;27.904;2023-05-19T10:55:43;100877.97;;;27.70;46.49
11523;BME280;70090;43.208;27.904;2023-05-19T10:58:10;100883.44;;;27.73;46.02
11523;BME280;70090;43.208;27.904;2023-05-19T11:00:38;100882.66;;;27.49;46.66
11523;BME280;70090;43.208;27.904;2023-05-19T11:03:13;100877.78;;;27.50;47.66
11523;BME280;70090;43.208;27.904;2023-05-19T11:05:40;100876.78;;;27.38;46.61
11523;BME280;70090;43.208;27.904;2023-05-19T11:08:11;100886.56;;;27.52;47.43
11523;BME280;70090;43.208;27.904;2023-05-19T11:10:38;100882.78;;;27.78;47.03
11523;BME280;70090;43.208;27.904;2023-05-19T11:13:05;100885.13;;;27.94;45.62
11523;BME280;70090;43.208;27.904;2023-05-19T11:15:34;100878.81;;;27.99;45.43
11523;BME280;70090;43.208;27.904;2023-05-19T11:18:01;100878.72;;;27.70;45.68
11523;BME280;70090;43.208;27.904;2023-05-19T11:20:30;100879.75;;;27.58;46.39
11523;BME280;70090;43.208;27.904;2023-05-19T11:23:06;100874.78;;;27.53;46.42
11523;BME280;70090;43.208;27.904;2023-05-19T11:25:42;100882.13;;;27.60;47.27
11523;BME280;70090;43.208;27.904;2023-05-19T11:28:10;100875.09;;;27.55;47.01
11523;BME280;70090;43.208;27.904;2023-05-19T11:30:40;100860.88;;;27.64;46.66
11523;BME280;70090;43.208;27.904;2023-05-19T11:33:08;100868.63;;;27.55;46.73
11523;BME280;70090;43.208;27.904;2023-05-19T11:35:35;100861.19;;;27.43;46.67
11523;BME280;70090;43.208;27.904;2023-05-19T11:38:02;100878.09;;;27.28;48.32
11523;BME280;70090;43.208;27.904;2023-05-19T11:40:29;100869.50;;;27.23;49.70
11523;BME280;70090;43.208;27.904;2023-05-19T11:42:58;100869.66;;;27.19;50.81
11523;BME280;70090;43.208;27.904;2023-05-19T11:45:27;100870.63;;;27.16;52.02
11523;BME280;70090;43.208;27.904;2023-05-19T11:47:54;100856.56;;;26.98;51.93
11523;BME280;70090;43.208;27.904;2023-05-19T11:50:22;100865.78;;;27.17;51.50
11523;BME280;70090;43.208;27.904;2023-05-19T11:52:49;100861.75;;;27.00;52.94
11523;BME280;70090;43.208;27.904;2023-05-19T11:55:16;100866.97;;;26.92;53.39
11523;BME280;70090;43.208;27.904;2023-05-19T11:57:50;100865.38;;;27.00;53.21
11523;BME280;70090;43.208;27.904;2023-05-19T12:00:21;100859.34;;;27.07;53.10
11523;BME280;70090;43.208;27.904;2023-05-19T12:02:48;100855.41;;;27.14;51.96
11523;BME280;70090;43.208;27.904;2023-05-19T12:05:18;100857.41;;;27.22;52.07
11523;BME280;70090;43.208;27.904;2023-05-19T12:07:45;100866.63;;;27.32;52.26
11523;BME280;70090;43.208;27.904;2023-05-19T12:10:14;100846.00;;;27.17;51.70
11523;BME280;70090;43.208;27.904;2023-05-19T12:12:41;100854.53;;;27.31;51.52
11523;BME280;70090;43.208;27.904;2023-05-19T12:15:10;100857.03;;;27.06;51.74
11523;BME280;70090;43.208;27.904;2023-05-19T12:17:38;100837.47;;;26.61;52.06
11523;BME280;70090;43.208;27.904;2023-05-19T12:20:06;100855.72;;;26.83;52.27
11523;BME280;70090;43.208;27.904;2023-05-19T12:22:33;100861.25;;;27.10;51.66
11523;BME280;70090;43.208;27.904;2023-05-19T12:25:01;100856.50;;;27.40;50.54
11523;BME280;70090;43.208;27.904;2023-05-19T12:27:29;100850.91;;;27.54;49.64
11523;BME280;70090;43.208;27.904;2023-05-19T12:29:56;100857.97;;;27.73;48.77
11523;BME280;70090;43.208;27.904;2023-05-19T12:32:23;100850.88;;;27.78;47.54
11523;BME280;70090;43.208;27.904;2023-05-19T12:34:52;100853.91;;;27.89;48.16
11523;BME280;70090;43.208;27.904;2023-05-19T12:37:19;100851.00;;;27.98;45.91
11523;BME280;70090;43.208;27.904;2023-05-19T12:39:47;100852.19;;;28.20;46.13
11523;BME280;70090;43.208;27.904;2023-05-19T12:42:15;100845.25;;;28.21;45.94
11523;BME280;70090;43.208;27.904;2023-05-19T12:44:43;100841.38;;;28.33;45.27